createdAt,value
2023-05-18T00:02:16.328Z,9.60
2023-05-18T00:04:48.593Z,9.56
2023-05-18T00:07:21.188Z,9.53
2023-05-18T00:09:53.359Z,9.52
2023-05-18T00:12:25.509Z,9.55
2023-05-18T00:14:57.719Z,9.55
2023-05-18T00:17:30.144Z,9.57
2023-05-18T00:20:05.385Z,9.61
2023-05-18T00:22:39.325Z,9.63
2023-05-18T00:25:11.646Z,9.60
2023-05-18T00:27:43.913Z,9.55
2023-05-18T00:30:17.137Z,9.61
2023-05-18T00:32:49.511Z,9.60
2023-05-18T00:35:21.746Z,9.56
2023-05-18T00:37:54.011Z,9.53
2023-05-18T00:40:27.617Z,9.50
2023-05-18T00:43:00.828Z,9.50
2023-05-18T00:45:33.437Z,9.49
2023-05-18T00:48:06.311Z,9.52
2023-05-18T00:50:38.478Z,9.49
2023-05-18T00:53:11.974Z,9.45
2023-05-18T00:55:44.130Z,9.49
2023-05-18T00:58:16.533Z,9.49
2023-05-18T01:00:49.356Z,9.44
2023-05-18T01:03:23.251Z,9.45
2023-05-18T01:05:58.216Z,9.45
2023-05-18T01:08:32.361Z,9.33
2023-05-18T01:11:13.131Z,9.33
2023-05-18T01:13:56.134Z,9.33
2023-05-18T01:16:34.376Z,9.29
2023-05-18T01:19:25.298Z,9.30
2023-05-18T01:22:09.309Z,9.32
2023-05-18T01:24:46.846Z,9.32
2023-05-18T01:27:24.821Z,9.30
2023-05-18T01:29:59.329Z,9.24
2023-05-18T01:32:32.241Z,9.22
2023-05-18T01:35:04.478Z,9.16
2023-05-18T01:37:36.650Z,9.12
2023-05-18T01:40:11.311Z,9.13
2023-05-18T01:42:48.053Z,9.10
2023-05-18T01:45:28.699Z,9.10
2023-05-18T01:48:04.292Z,9.08
2023-05-18T01:50:42.198Z,9.06
2023-05-18T01:53:21.626Z,9.07
2023-05-18T01:55:56.676Z,9.11
2023-05-18T01:58:30.063Z,9.17
2023-05-18T02:01:02.639Z,9.21
2023-05-18T02:03:36.756Z,9.19
2023-05-18T02:06:09.611Z,9.16
2023-05-18T02:08:42.811Z,9.18
2023-05-18T02:11:15.000Z,9.16
2023-05-18T02:13:47.188Z,9.12
2023-05-18T02:16:20.174Z,9.04
2023-05-18T02:18:53.160Z,8.98
2023-05-18T02:21:26.267Z,8.98
2023-05-18T02:23:59.101Z,8.99
2023-05-18T02:26:31.401Z,9.01
2023-05-18T02:29:03.477Z,9.04
2023-05-18T02:31:36.214Z,9.06
2023-05-18T02:34:09.267Z,9.06
2023-05-18T02:36:42.888Z,9.05
2023-05-18T02:39:15.388Z,9.01
2023-05-18T02:41:47.464Z,8.96
2023-05-18T02:44:19.607Z,8.94
2023-05-18T02:46:51.788Z,8.93
2023-05-18T02:49:24.605Z,8.90
2023-05-18T02:51:57.022Z,8.89
2023-05-18T02:54:29.179Z,8.87
2023-05-18T02:57:01.380Z,8.81
2023-05-18T02:59:46.344Z,8.80
2023-05-18T03:02:18.767Z,8.81
2023-05-18T03:04:57.712Z,8.76
2023-05-18T03:07:29.862Z,8.68
2023-05-18T03:10:03.570Z,8.67
2023-05-18T03:12:36.565Z,8.68
2023-05-18T03:15:11.881Z,8.71
2023-05-18T03:17:44.089Z,8.72
2023-05-18T03:20:16.608Z,8.78
2023-05-18T03:22:48.983Z,8.82
2023-05-18T03:25:21.270Z,8.80
2023-05-18T03:27:54.140Z,8.77
2023-05-18T03:30:26.648Z,8.77
2023-05-18T03:32:59.535Z,8.78
2023-05-18T03:35:32.910Z,8.78
2023-05-18T03:38:05.292Z,8.76
2023-05-18T03:40:38.225Z,8.79
2023-05-18T03:43:10.399Z,8.81
2023-05-18T03:45:43.310Z,8.80
2023-05-18T03:48:15.444Z,8.78
2023-05-18T03:50:48.953Z,8.79
2023-05-18T03:53:21.781Z,8.79
2023-05-18T03:55:54.037Z,8.81
2023-05-18T03:58:27.616Z,8.80
2023-05-18T04:01:00.700Z,8.75
2023-05-18T04:03:35.002Z,8.73
2023-05-18T04:06:07.638Z,8.71
2023-05-18T04:08:40.678Z,8.73
2023-05-18T04:11:12.899Z,8.74
2023-05-18T04:13:45.455Z,8.75
2023-05-18T04:16:18.431Z,8.75
2023-05-18T04:18:50.805Z,8.76
2023-05-18T04:21:24.131Z,8.78
2023-05-18T04:24:00.468Z,8.82
2023-05-18T04:26:32.499Z,8.90
2023-05-18T04:29:04.944Z,8.96
2023-05-18T04:31:37.639Z,8.94
2023-05-18T04:34:13.419Z,8.95
2023-05-18T04:36:45.620Z,8.93
2023-05-18T04:39:18.332Z,8.91
2023-05-18T04:41:50.722Z,8.93
2023-05-18T04:44:22.836Z,8.92
2023-05-18T04:46:55.342Z,8.95
2023-05-18T04:49:28.449Z,8.98
2023-05-18T04:52:01.125Z,9.02
2023-05-18T04:54:33.250Z,9.09
2023-05-18T04:57:05.456Z,9.19
2023-05-18T04:59:38.096Z,9.25
2023-05-18T05:02:10.488Z,9.29
2023-05-18T05:04:43.068Z,9.31
2023-05-18T05:07:15.196Z,9.35
2023-05-18T05:09:50.223Z,9.35
2023-05-18T05:12:22.326Z,9.33
2023-05-18T05:14:54.474Z,9.35
2023-05-18T05:17:27.390Z,9.38
2023-05-18T05:19:59.518Z,9.39
2023-05-18T05:22:31.705Z,9.44
2023-05-18T05:25:05.864Z,9.48
2023-05-18T05:27:38.529Z,9.58
2023-05-18T05:30:12.250Z,9.57
2023-05-18T05:32:45.559Z,9.62
2023-05-18T05:35:18.278Z,9.66
2023-05-18T05:37:51.237Z,9.63
2023-05-18T05:40:23.484Z,9.68
2023-05-18T05:42:56.811Z,9.70
2023-05-18T05:45:29.674Z,9.74
2023-05-18T05:48:05.678Z,9.81
2023-05-18T05:50:39.701Z,9.90
2023-05-18T05:53:11.898Z,9.99
2023-05-18T05:55:44.837Z,10.03
2023-05-18T05:58:19.848Z,10.11
2023-05-18T06:00:57.157Z,10.19
2023-05-18T06:03:33.010Z,10.27
2023-05-18T06:06:09.551Z,10.30
2023-05-18T06:08:41.737Z,10.34
2023-05-18T06:11:14.835Z,10.38
2023-05-18T06:13:46.997Z,10.47
2023-05-18T06:16:19.188Z,10.57
2023-05-18T06:18:51.595Z,10.64
2023-05-18T06:21:24.328Z,10.73
2023-05-18T06:23:56.910Z,10.79
2023-05-18T06:26:47.832Z,10.83
2023-05-18T06:29:32.909Z,10.85
2023-05-18T06:32:22.467Z,10.87
2023-05-18T06:34:59.356Z,10.91
2023-05-18T06:37:32.342Z,10.96
2023-05-18T06:40:07.481Z,10.98
2023-05-18T06:42:39.652Z,11.04
2023-05-18T06:45:32.561Z,11.10
2023-05-18T06:48:15.804Z,11.20
2023-05-18T06:50:48.026Z,11.30
2023-05-18T06:53:20.174Z,11.36
2023-05-18T06:55:52.405Z,11.44
2023-05-18T06:58:25.774Z,11.46
2023-05-18T07:00:58.225Z,11.54
2023-05-18T07:03:30.748Z,11.65
2023-05-18T07:06:04.693Z,11.75
2023-05-18T07:08:37.613Z,11.81
2023-05-18T07:11:10.017Z,11.82
2023-05-18T07:13:42.221Z,11.87
2023-05-18T07:16:14.628Z,11.90
2023-05-18T07:18:46.996Z,11.98
2023-05-18T07:21:19.096Z,12.12
2023-05-18T07:23:52.759Z,12.20
2023-05-18T07:26:25.004Z,12.33
2023-05-18T07:28:57.172Z,12.50
2023-05-18T07:31:29.470Z,12.72
2023-05-18T07:34:01.859Z,12.92
2023-05-18T07:36:34.243Z,13.11
2023-05-18T07:39:06.899Z,13.21
2023-05-18T07:41:39.245Z,13.28
2023-05-18T07:44:11.387Z,13.36
2023-05-18T07:46:44.573Z,13.44
2023-05-18T07:49:16.875Z,13.52
2023-05-18T07:51:48.906Z,13.57
2023-05-18T07:54:21.413Z,13.58
2023-05-18T07:56:53.645Z,13.62
2023-05-18T07:59:26.045Z,13.69
2023-05-18T08:01:59.375Z,13.75
2023-05-18T08:04:32.607Z,13.83
2023-05-18T08:07:05.687Z,13.97
2023-05-18T08:09:38.018Z,14.16
2023-05-18T08:12:10.941Z,14.32
2023-05-18T08:14:43.221Z,14.49
2023-05-18T08:17:15.585Z,14.65
2023-05-18T08:19:48.060Z,14.67
2023-05-18T08:22:20.905Z,14.70
2023-05-18T08:24:53.388Z,14.73
2023-05-18T08:27:25.770Z,14.79
2023-05-18T08:29:57.967Z,14.83
2023-05-18T08:32:30.430Z,14.91
2023-05-18T08:35:02.603Z,15.04
2023-05-18T08:37:34.772Z,15.00
2023-05-18T08:40:11.519Z,14.88
2023-05-18T08:42:52.721Z,14.81
2023-05-18T08:45:31.970Z,14.81
2023-05-18T08:48:07.147Z,14.76
2023-05-18T08:50:42.716Z,14.75
2023-05-18T08:53:15.539Z,14.67
2023-05-18T08:55:51.165Z,14.58
2023-05-18T08:58:34.061Z,14.41
2023-05-18T09:01:07.159Z,14.31
2023-05-18T09:03:40.884Z,14.34
2023-05-18T09:06:13.585Z,14.37
2023-05-18T09:08:47.352Z,14.42
2023-05-18T09:11:21.804Z,14.50
2023-05-18T09:13:54.306Z,14.58
2023-05-18T09:16:26.710Z,14.75
2023-05-18T09:18:59.355Z,14.93
2023-05-18T09:21:33.875Z,15.07
2023-05-18T09:24:07.495Z,15.17
2023-05-18T09:26:40.383Z,15.29
2023-05-18T09:29:21.380Z,15.43
2023-05-18T09:31:54.749Z,15.70
2023-05-18T09:34:27.369Z,15.87
2023-05-18T09:36:59.748Z,16.02
2023-05-18T09:39:31.952Z,16.23
2023-05-18T09:42:06.010Z,16.45
2023-05-18T09:44:38.331Z,16.63
2023-05-18T09:47:12.396Z,16.73
2023-05-18T09:49:45.130Z,16.79
2023-05-18T09:52:17.302Z,16.80
2023-05-18T09:54:59.055Z,16.83
2023-05-18T09:57:31.449Z,16.83
2023-05-18T10:00:11.007Z,16.87
2023-05-18T10:02:48.767Z,16.81
2023-05-18T10:05:27.471Z,16.77
2023-05-18T10:08:00.444Z,16.72
2023-05-18T10:10:33.243Z,16.62
2023-05-18T10:13:05.879Z,16.56
2023-05-18T10:15:38.721Z,16.54
2023-05-18T10:18:11.680Z,16.52
2023-05-18T10:20:45.938Z,16.49
2023-05-18T10:23:19.590Z,16.46
2023-05-18T10:25:53.889Z,16.40
2023-05-18T10:28:29.392Z,16.32
2023-05-18T10:31:02.560Z,16.30
2023-05-18T10:33:36.940Z,16.31
2023-05-18T10:36:11.898Z,16.27
2023-05-18T10:38:46.072Z,16.24
2023-05-18T10:41:19.814Z,16.35
2023-05-18T10:43:54.312Z,16.41
2023-05-18T10:46:27.500Z,16.51
2023-05-18T10:49:02.101Z,16.57
2023-05-18T10:51:35.444Z,16.60
2023-05-18T10:54:15.192Z,16.59
2023-05-18T10:56:50.632Z,16.57
2023-05-18T10:59:24.495Z,16.51
2023-05-18T11:01:58.384Z,16.37
2023-05-18T11:04:32.528Z,16.24
2023-05-18T11:07:04.965Z,16.21
2023-05-18T11:09:37.309Z,16.23
2023-05-18T11:12:14.978Z,16.19
2023-05-18T11:14:57.934Z,16.11
2023-05-18T11:17:32.226Z,16.01
2023-05-18T11:20:19.742Z,15.92
2023-05-18T11:23:03.276Z,15.75
2023-05-18T11:25:46.193Z,15.73
2023-05-18T11:28:18.601Z,15.74
2023-05-18T11:30:52.775Z,15.72
2023-05-18T11:33:31.114Z,15.64
2023-05-18T11:36:08.335Z,15.59
2023-05-18T11:38:52.729Z,15.50
2023-05-18T11:41:36.002Z,15.43
2023-05-18T11:44:16.250Z,15.35
2023-05-18T11:47:01.330Z,15.25
2023-05-18T11:49:37.588Z,15.22
2023-05-18T11:52:20.129Z,15.14
2023-05-18T11:54:55.450Z,15.12
2023-05-18T11:57:39.817Z,15.08
2023-05-18T12:00:16.495Z,14.96
2023-05-18T12:02:50.132Z,14.96
2023-05-18T12:05:22.669Z,14.94
2023-05-18T12:07:57.318Z,14.88
2023-05-18T12:10:30.004Z,14.82
2023-05-18T12:13:03.018Z,14.83
2023-05-18T12:15:36.765Z,14.84
2023-05-18T12:18:09.130Z,14.81
2023-05-18T12:20:43.816Z,14.79
2023-05-18T12:23:16.119Z,14.79
2023-05-18T12:25:49.028Z,14.86
2023-05-18T12:28:21.517Z,14.93
2023-05-18T12:30:59.390Z,15.00
2023-05-18T12:33:31.685Z,15.10
2023-05-18T12:36:03.897Z,15.18
2023-05-18T12:38:36.673Z,15.13
2023-05-18T12:41:08.979Z,15.04
2023-05-18T12:43:41.677Z,14.98
2023-05-18T12:46:14.751Z,14.93
2023-05-18T12:48:57.228Z,14.84
2023-05-18T12:51:33.029Z,14.81
2023-05-18T12:54:04.166Z,14.83
2023-05-18T12:57:01.993Z,14.77
2023-05-18T12:59:35.373Z,14.72
2023-05-18T13:02:08.246Z,14.65
2023-05-18T13:04:40.863Z,14.59
2023-05-18T13:07:14.680Z,14.53
2023-05-18T13:09:49.917Z,14.52
2023-05-18T13:12:36.414Z,14.54
2023-05-18T13:15:14.583Z,14.55
2023-05-18T13:18:01.452Z,14.50
2023-05-18T13:20:36.985Z,14.50
2023-05-18T13:23:12.278Z,14.45
2023-05-18T13:25:45.687Z,14.47
2023-05-18T13:28:19.736Z,14.46
2023-05-18T13:30:52.476Z,14.45
2023-05-18T13:33:24.693Z,14.44
2023-05-18T13:35:56.962Z,14.39
2023-05-18T13:38:29.264Z,14.37
2023-05-18T13:41:01.326Z,14.40
2023-05-18T13:43:33.609Z,14.41
2023-05-18T13:46:06.317Z,14.42
2023-05-18T13:48:38.481Z,14.43
2023-05-18T13:51:10.700Z,14.41
2023-05-18T13:53:42.853Z,14.38
2023-05-18T13:56:14.877Z,14.35
2023-05-18T13:58:47.535Z,14.40
2023-05-18T14:01:21.812Z,14.42
2023-05-18T14:03:54.125Z,14.43
2023-05-18T14:06:27.735Z,14.44
2023-05-18T14:08:59.880Z,14.40
2023-05-18T14:11:34.709Z,14.44
2023-05-18T14:14:06.981Z,14.49
2023-05-18T14:16:39.171Z,14.50
2023-05-18T14:19:11.408Z,14.52
2023-05-18T14:21:43.778Z,14.54
2023-05-18T14:24:15.946Z,14.56
2023-05-18T14:26:48.053Z,14.56
2023-05-18T14:29:20.140Z,14.57
2023-05-18T14:31:52.319Z,14.58
2023-05-18T14:34:24.416Z,14.64
2023-05-18T14:36:56.684Z,14.68
2023-05-18T14:39:29.018Z,14.69
2023-05-18T14:42:01.386Z,14.72
2023-05-18T14:44:33.636Z,14.68
2023-05-18T14:47:06.535Z,14.65
2023-05-18T14:49:39.166Z,14.60
2023-05-18T14:52:11.482Z,14.51
2023-05-18T14:54:44.114Z,14.47
2023-05-18T14:57:16.550Z,14.44
2023-05-18T14:59:48.980Z,14.39
2023-05-18T15:02:21.312Z,14.40
2023-05-18T15:04:53.656Z,14.41
2023-05-18T15:07:26.329Z,14.43
2023-05-18T15:09:58.809Z,14.48
2023-05-18T15:12:31.136Z,14.55
2023-05-18T15:15:03.318Z,14.54
2023-05-18T15:17:35.543Z,14.45
2023-05-18T15:20:10.205Z,14.37
2023-05-18T15:22:42.381Z,14.30
2023-05-18T15:25:14.573Z,14.26
2023-05-18T15:27:48.995Z,14.20
2023-05-18T15:30:21.260Z,14.18
2023-05-18T15:32:53.396Z,14.18
2023-05-18T15:35:25.717Z,14.16
2023-05-18T15:37:58.269Z,14.11
2023-05-18T15:40:30.885Z,14.11
2023-05-18T15:43:03.246Z,14.06
2023-05-18T15:45:35.693Z,13.98
2023-05-18T15:48:08.557Z,13.94
2023-05-18T15:50:41.072Z,13.90
2023-05-18T15:53:15.969Z,13.94
2023-05-18T15:55:50.998Z,13.92
2023-05-18T15:58:23.496Z,13.87
2023-05-18T16:00:55.871Z,13.85
2023-05-18T16:03:28.116Z,13.73
2023-05-18T16:06:00.939Z,13.64
2023-05-18T16:08:33.118Z,13.59
2023-05-18T16:11:07.179Z,13.57
2023-05-18T16:13:39.374Z,13.53
2023-05-18T16:16:14.330Z,13.42
2023-05-18T16:18:46.599Z,13.31
2023-05-18T16:21:18.855Z,13.24
2023-05-18T16:23:50.973Z,13.17
2023-05-18T16:26:23.025Z,13.12
2023-05-18T16:28:56.641Z,13.04
2023-05-18T16:31:29.321Z,12.95
2023-05-18T16:34:01.436Z,12.90
2023-05-18T16:36:33.637Z,12.90
2023-05-18T16:39:07.937Z,12.88
2023-05-18T16:41:40.059Z,12.81
2023-05-18T16:44:12.198Z,12.71
2023-05-18T16:46:44.414Z,12.66
2023-05-18T16:49:16.565Z,12.59
2023-05-18T16:51:48.775Z,12.51
2023-05-18T16:54:20.994Z,12.46
2023-05-18T16:56:53.264Z,12.35
2023-05-18T16:59:25.455Z,12.22
2023-05-18T17:01:57.896Z,12.16
2023-05-18T17:04:30.190Z,12.11
2023-05-18T17:07:02.756Z,12.05
2023-05-18T17:09:34.905Z,11.99
2023-05-18T17:12:07.752Z,11.96
2023-05-18T17:14:40.120Z,11.91
2023-05-18T17:17:12.352Z,11.84
2023-05-18T17:19:44.478Z,11.83
2023-05-18T17:22:16.630Z,11.81
2023-05-18T17:24:48.779Z,11.79
2023-05-18T17:27:20.989Z,11.77
2023-05-18T17:29:53.212Z,11.71
2023-05-18T17:32:25.418Z,11.72
2023-05-18T17:34:57.679Z,11.70
2023-05-18T17:37:29.852Z,11.69
2023-05-18T17:40:01.990Z,11.68
2023-05-18T17:42:34.185Z,11.62
2023-05-18T17:45:07.249Z,11.54
2023-05-18T17:47:41.860Z,11.50
2023-05-18T17:50:14.675Z,11.48
2023-05-18T17:52:46.819Z,11.47
2023-05-18T17:55:19.130Z,11.42
2023-05-18T17:57:52.276Z,11.38
2023-05-18T18:00:24.952Z,11.35
2023-05-18T18:02:57.281Z,11.33
2023-05-18T18:05:30.903Z,11.33
2023-05-18T18:08:05.403Z,11.31
2023-05-18T18:10:37.764Z,11.23
2023-05-18T18:13:10.156Z,11.20
2023-05-18T18:15:42.444Z,11.19
2023-05-18T18:18:14.702Z,11.17
2023-05-18T18:20:47.167Z,11.14
2023-05-18T18:23:19.745Z,11.10
2023-05-18T18:25:52.302Z,11.07
2023-05-18T18:28:25.065Z,11.10
2023-05-18T18:30:58.119Z,11.11
2023-05-18T18:33:30.400Z,11.08
2023-05-18T18:36:04.593Z,11.03
2023-05-18T18:38:36.814Z,10.98
2023-05-18T18:41:09.207Z,10.99
2023-05-18T18:43:41.631Z,10.98
2023-05-18T18:46:14.128Z,10.99
2023-05-18T18:48:47.397Z,11.00
2023-05-18T18:51:19.703Z,10.97
2023-05-18T18:53:52.274Z,10.98
2023-05-18T18:56:27.160Z,10.99
2023-05-18T18:59:00.109Z,10.95
2023-05-18T19:01:32.653Z,10.96
2023-05-18T19:04:05.770Z,10.96
2023-05-18T19:06:38.386Z,10.95
2023-05-18T19:09:11.353Z,10.96
2023-05-18T19:11:43.862Z,10.95
2023-05-18T19:14:16.923Z,10.97
2023-05-18T19:16:49.607Z,10.88
2023-05-18T19:19:22.568Z,10.74
2023-05-18T19:21:55.315Z,10.69
2023-05-18T19:24:28.874Z,10.57
2023-05-18T19:27:02.317Z,10.53
2023-05-18T19:29:37.473Z,10.47
2023-05-18T19:32:11.032Z,10.44
2023-05-18T19:34:46.056Z,10.39
2023-05-18T19:37:19.673Z,10.34
2023-05-18T19:39:52.790Z,10.26
2023-05-18T19:42:26.156Z,10.24
2023-05-18T19:44:59.050Z,10.27
2023-05-18T19:47:32.144Z,10.22
2023-05-18T19:50:06.468Z,10.26
2023-05-18T19:52:39.337Z,10.31
2023-05-18T19:55:12.238Z,10.30
2023-05-18T19:57:45.018Z,10.35
2023-05-18T20:00:18.808Z,10.35
2023-05-18T20:02:52.144Z,10.32
2023-05-18T20:05:25.693Z,10.25
2023-05-18T20:07:59.529Z,10.21
2023-05-18T20:10:33.706Z,10.20
2023-05-18T20:13:08.824Z,10.25
2023-05-18T20:15:43.974Z,10.28
2023-05-18T20:18:17.967Z,10.28
2023-05-18T20:20:52.496Z,10.26
2023-05-18T20:23:26.644Z,10.29
2023-05-18T20:26:00.041Z,10.41
2023-05-18T20:28:34.040Z,10.53
2023-05-18T20:31:07.850Z,10.57
2023-05-18T20:33:44.721Z,10.54
2023-05-18T20:36:19.276Z,10.59
2023-05-18T20:38:54.676Z,10.61
2023-05-18T20:41:28.491Z,10.63
2023-05-18T20:44:02.318Z,10.59
2023-05-18T20:46:35.579Z,10.60
2023-05-18T20:49:09.489Z,10.63
2023-05-18T20:51:42.410Z,10.71
2023-05-18T20:54:15.139Z,10.81
2023-05-18T20:56:47.838Z,10.90
2023-05-18T20:59:20.080Z,10.94
2023-05-18T21:01:53.086Z,10.97
2023-05-18T21:04:25.471Z,10.95
2023-05-18T21:06:57.929Z,10.94
2023-05-18T21:09:31.582Z,10.95
2023-05-18T21:12:03.893Z,10.91
2023-05-18T21:14:39.035Z,10.88
2023-05-18T21:17:11.194Z,10.80
2023-05-18T21:19:43.416Z,10.76
2023-05-18T21:22:15.603Z,10.75
2023-05-18T21:24:47.805Z,10.77
2023-05-18T21:27:20.116Z,10.83
2023-05-18T21:29:52.357Z,10.84
2023-05-18T21:32:24.765Z,10.84
2023-05-18T21:34:57.368Z,10.84
2023-05-18T21:37:30.731Z,10.85
2023-05-18T21:40:03.532Z,10.84
2023-05-18T21:42:35.650Z,10.83
2023-05-18T21:45:09.449Z,10.77
2023-05-18T21:47:41.925Z,10.73
2023-05-18T21:50:14.890Z,10.70
2023-05-18T21:52:47.054Z,10.66
2023-05-18T21:55:19.461Z,10.65
2023-05-18T21:57:51.730Z,10.63
2023-05-18T22:00:23.954Z,10.61
2023-05-18T22:02:56.184Z,10.64
2023-05-18T22:05:28.575Z,10.65
2023-05-18T22:08:01.391Z,10.69
2023-05-18T22:10:34.119Z,10.71
2023-05-18T22:13:06.581Z,10.70
2023-05-18T22:15:40.328Z,10.71
2023-05-18T22:18:12.879Z,10.72
2023-05-18T22:20:45.298Z,10.72
2023-05-18T22:23:17.412Z,10.70
2023-05-18T22:25:49.922Z,10.65
2023-05-18T22:28:22.560Z,10.57
2023-05-18T22:30:55.209Z,10.51
2023-05-18T22:33:27.465Z,10.46
2023-05-18T22:35:59.578Z,10.43
2023-05-18T22:38:31.809Z,10.38
2023-05-18T22:41:03.938Z,10.37
2023-05-18T22:43:36.285Z,10.38
2023-05-18T22:46:09.239Z,10.43
2023-05-18T22:48:41.801Z,10.45
2023-05-18T22:51:13.951Z,10.48
2023-05-18T22:53:46.649Z,10.45
2023-05-18T22:56:22.001Z,10.44
2023-05-18T22:58:54.113Z,10.41
2023-05-18T23:01:26.470Z,10.37
2023-05-18T23:03:58.752Z,10.29
2023-05-18T23:06:31.810Z,10.26
2023-05-18T23:09:04.099Z,10.31
2023-05-18T23:11:36.245Z,10.36
2023-05-18T23:14:10.163Z,10.36
2023-05-18T23:16:43.341Z,10.38
2023-05-18T23:19:18.614Z,10.47
2023-05-18T23:21:50.858Z,10.47
2023-05-18T23:24:23.378Z,10.44
2023-05-18T23:26:56.759Z,10.42
2023-05-18T23:29:29.272Z,10.43
2023-05-18T23:32:01.553Z,10.47
2023-05-18T23:34:34.766Z,10.53
2023-05-18T23:37:10.757Z,10.61
2023-05-18T23:39:42.334Z,10.61
2023-05-18T23:42:16.304Z,10.63
2023-05-18T23:44:50.575Z,10.58
2023-05-18T23:47:23.448Z,10.54
2023-05-18T23:49:57.202Z,10.49
2023-05-18T23:52:31.132Z,10.44
2023-05-18T23:55:04.267Z,10.43
2023-05-18T23:57:37.323Z,10.47
